createdAt,value
2023-05-15T00:00:33.471Z,1.60
2023-05-15T00:01:38.106Z,1.73
2023-05-15T00:02:47.096Z,1.80
2023-05-15T00:03:52.448Z,1.50
2023-05-15T00:04:58.794Z,1.40
2023-05-15T00:06:05.980Z,1.58
2023-05-15T00:07:11.290Z,1.60
2023-05-15T00:08:16.608Z,1.98
2023-05-15T00:09:22.590Z,1.30
2023-05-15T00:10:26.509Z,1.50
2023-05-15T00:11:32.647Z,1.83
2023-05-15T00:12:37.369Z,1.50
2023-05-15T00:13:42.399Z,1.30
2023-05-15T00:14:46.339Z,1.60
2023-05-15T00:15:52.474Z,1.60
2023-05-15T00:16:56.586Z,1.40
2023-05-15T00:18:02.140Z,2.30
2023-05-15T00:19:06.644Z,1.60
2023-05-15T00:20:11.880Z,2.25
2023-05-15T00:21:18.520Z,1.45
2023-05-15T00:22:23.523Z,1.30
2023-05-15T00:23:28.752Z,1.75
2023-05-15T00:24:34.173Z,1.77
2023-05-15T00:25:38.112Z,1.27
2023-05-15T00:26:44.045Z,2.22
2023-05-15T00:27:47.939Z,1.83
2023-05-15T00:28:53.082Z,1.50
2023-05-15T00:29:56.984Z,1.30
2023-05-15T00:31:01.764Z,1.60
2023-05-15T00:32:06.420Z,1.35
2023-05-15T00:33:11.541Z,1.42
2023-05-15T00:34:16.534Z,1.30
2023-05-15T00:35:21.115Z,1.40
2023-05-15T00:36:27.395Z,1.80
2023-05-15T00:37:32.287Z,1.92
2023-05-15T00:38:36.896Z,1.45
2023-05-15T00:39:41.799Z,1.60
2023-05-15T00:40:47.323Z,1.58
2023-05-15T00:41:53.806Z,1.40
2023-05-15T00:42:58.656Z,1.85
2023-05-15T00:44:04.451Z,1.73
2023-05-15T00:45:12.080Z,1.58
2023-05-15T00:46:17.901Z,1.50
2023-05-15T00:47:23.495Z,1.90
2023-05-15T00:48:30.397Z,1.80
2023-05-15T00:49:36.108Z,1.75
2023-05-15T00:50:44.014Z,1.60
2023-05-15T00:51:49.930Z,1.80
2023-05-15T00:52:56.675Z,1.30
2023-05-15T00:54:00.785Z,1.70
2023-05-15T00:55:06.673Z,1.40
2023-05-15T00:56:12.091Z,1.60
2023-05-15T00:57:19.203Z,1.50
2023-05-15T00:58:24.172Z,1.45
2023-05-15T00:59:30.833Z,1.70
2023-05-15T01:00:35.736Z,1.65
2023-05-15T01:01:41.719Z,1.73
2023-05-15T01:02:47.669Z,2.00
2023-05-15T01:03:52.680Z,1.80
2023-05-15T01:04:56.780Z,1.60
2023-05-15T01:06:03.954Z,1.83
2023-05-15T01:07:09.353Z,1.70
2023-05-15T01:08:21.247Z,1.70
2023-05-15T01:09:27.469Z,2.00
2023-05-15T01:10:33.539Z,1.77
2023-05-15T01:11:39.222Z,1.80
2023-05-15T01:12:46.759Z,2.13
2023-05-15T01:13:50.416Z,2.00
2023-05-15T01:14:56.384Z,2.38
2023-05-15T01:16:00.516Z,1.80
2023-05-15T01:17:05.812Z,2.00
2023-05-15T01:18:09.784Z,2.25
2023-05-15T01:19:14.795Z,2.40
2023-05-15T01:20:20.242Z,2.00
2023-05-15T01:21:46.436Z,2.10
2023-05-15T01:23:07.177Z,2.05
2023-05-15T01:24:28.266Z,2.78
2023-05-15T01:26:02.739Z,2.20
2023-05-15T01:27:29.274Z,2.25
2023-05-15T01:28:35.370Z,1.90
2023-05-15T01:29:46.252Z,1.70
2023-05-15T01:30:51.830Z,1.25
2023-05-15T01:32:04.050Z,1.80
2023-05-15T01:33:15.304Z,1.75
2023-05-15T01:34:25.267Z,1.63
2023-05-15T01:35:34.649Z,1.35
2023-05-15T01:36:45.789Z,1.52
2023-05-15T01:37:56.450Z,1.58
2023-05-15T01:39:04.995Z,1.60
2023-05-15T01:40:10.152Z,1.60
2023-05-15T01:41:21.526Z,1.60
2023-05-15T01:42:31.845Z,1.20
2023-05-15T01:43:41.050Z,1.52
2023-05-15T01:44:51.146Z,1.50
2023-05-15T01:45:57.650Z,1.33
2023-05-15T01:47:05.632Z,1.20
2023-05-15T01:48:12.665Z,1.70
2023-05-15T01:49:19.668Z,1.40
2023-05-15T01:50:25.277Z,1.33
2023-05-15T01:51:30.180Z,1.55
2023-05-15T01:52:37.430Z,1.13
2023-05-15T01:53:41.396Z,1.50
2023-05-15T01:54:47.859Z,1.50
2023-05-15T01:55:53.715Z,1.40
2023-05-15T01:56:59.771Z,1.38
2023-05-15T01:58:07.042Z,1.58
2023-05-15T01:59:13.439Z,1.50
2023-05-15T02:00:20.632Z,2.08
2023-05-15T02:01:26.458Z,1.80
2023-05-15T02:02:31.843Z,2.13
2023-05-15T02:03:38.754Z,2.00
2023-05-15T02:04:47.033Z,2.47
2023-05-15T02:05:53.854Z,2.40
2023-05-15T02:06:58.267Z,2.20
2023-05-15T02:08:04.679Z,2.50
2023-05-15T02:09:11.397Z,2.10
2023-05-15T02:10:18.013Z,2.45
2023-05-15T02:11:21.904Z,2.70
2023-05-15T02:12:27.732Z,2.60
2023-05-15T02:13:34.244Z,2.50
2023-05-15T02:14:42.168Z,2.25
2023-05-15T02:15:49.042Z,1.50
2023-05-15T02:16:55.012Z,1.38
2023-05-15T02:17:58.923Z,1.40
2023-05-15T02:19:03.654Z,1.90
2023-05-15T02:20:08.462Z,2.28
2023-05-15T02:21:13.451Z,2.35
2023-05-15T02:22:16.953Z,2.60
2023-05-15T02:23:22.601Z,2.50
2023-05-15T02:24:27.756Z,2.65
2023-05-15T02:25:41.475Z,1.75
2023-05-15T02:26:58.080Z,2.45
2023-05-15T02:28:04.580Z,2.72
2023-05-15T02:29:19.754Z,3.55
2023-05-15T02:30:38.069Z,3.85
2023-05-15T02:31:53.521Z,3.63
2023-05-15T02:33:07.558Z,3.58
2023-05-15T02:34:19.203Z,3.10
2023-05-15T02:35:32.983Z,4.10
2023-05-15T02:36:43.224Z,2.80
2023-05-15T02:37:51.670Z,2.53
2023-05-15T02:38:57.282Z,2.83
2023-05-15T02:40:04.969Z,3.15
2023-05-15T02:41:11.632Z,2.55
2023-05-15T02:42:17.181Z,2.95
2023-05-15T02:43:21.222Z,2.30
2023-05-15T02:44:30.842Z,2.65
2023-05-15T02:45:36.425Z,2.72
2023-05-15T02:46:42.460Z,3.08
2023-05-15T02:47:48.675Z,2.75
2023-05-15T02:48:55.075Z,3.33
2023-05-15T02:49:59.029Z,3.58
2023-05-15T02:51:03.973Z,3.08
2023-05-15T02:52:07.566Z,2.20
2023-05-15T02:53:15.266Z,1.80
2023-05-15T02:54:19.450Z,1.80
2023-05-15T02:55:24.827Z,1.77
2023-05-15T02:56:28.778Z,1.67
2023-05-15T02:57:33.812Z,1.65
2023-05-15T02:58:38.981Z,1.63
2023-05-15T02:59:45.423Z,2.85
2023-05-15T03:00:56.137Z,4.10
2023-05-15T03:02:10.475Z,1.85
2023-05-15T03:03:14.750Z,1.73
2023-05-15T03:04:20.451Z,1.20
2023-05-15T03:05:23.963Z,1.50
2023-05-15T03:06:29.256Z,1.35
2023-05-15T03:07:33.783Z,1.73
2023-05-15T03:08:38.991Z,1.13
2023-05-15T03:09:42.787Z,1.38
2023-05-15T03:10:49.421Z,1.40
2023-05-15T03:11:53.497Z,1.90
2023-05-15T03:13:01.164Z,1.83
2023-05-15T03:14:04.799Z,1.50
2023-05-15T03:15:11.661Z,1.48
2023-05-15T03:16:15.546Z,2.20
2023-05-15T03:17:20.356Z,2.28
2023-05-15T03:18:24.274Z,1.75
2023-05-15T03:19:29.544Z,1.90
2023-05-15T03:20:32.942Z,2.08
2023-05-15T03:21:38.287Z,2.20
2023-05-15T03:22:42.468Z,2.20
2023-05-15T03:23:47.442Z,1.85
2023-05-15T03:24:51.231Z,2.00
2023-05-15T03:25:55.734Z,1.75
2023-05-15T03:27:00.031Z,1.85
2023-05-15T03:28:04.909Z,2.15
2023-05-15T03:29:08.571Z,1.77
2023-05-15T03:30:16.154Z,1.70
2023-05-15T03:31:19.727Z,1.80
2023-05-15T03:32:25.109Z,1.67
2023-05-15T03:33:29.844Z,2.20
2023-05-15T03:34:35.456Z,1.70
2023-05-15T03:35:38.994Z,1.90
2023-05-15T03:36:43.965Z,1.88
2023-05-15T03:37:48.615Z,2.30
2023-05-15T03:38:54.203Z,2.33
2023-05-15T03:39:59.348Z,2.78
2023-05-15T03:41:05.552Z,2.88
2023-05-15T03:42:10.441Z,3.30
2023-05-15T03:43:15.053Z,3.80
2023-05-15T03:44:18.688Z,4.30
2023-05-15T03:45:26.234Z,4.18
2023-05-15T03:46:30.604Z,4.32
2023-05-15T03:47:37.813Z,3.97
2023-05-15T03:48:41.879Z,3.58
2023-05-15T03:49:48.210Z,3.90
2023-05-15T03:50:52.831Z,3.65
2023-05-15T03:51:59.279Z,4.03
2023-05-15T03:53:02.606Z,4.20
2023-05-15T03:54:09.051Z,4.10
2023-05-15T03:55:13.394Z,4.13
2023-05-15T03:56:19.250Z,4.15
2023-05-15T03:57:22.926Z,4.45
2023-05-15T03:58:27.963Z,4.13
2023-05-15T03:59:32.483Z,4.35
2023-05-15T04:00:38.783Z,4.63
2023-05-15T04:01:55.746Z,4.53
2023-05-15T04:03:08.690Z,4.07
2023-05-15T04:04:13.086Z,4.03
2023-05-15T04:05:20.119Z,3.92
2023-05-15T04:06:23.860Z,4.50
2023-05-15T04:07:28.714Z,4.10
2023-05-15T04:08:33.724Z,4.05
2023-05-15T04:09:39.407Z,3.97
2023-05-15T04:10:43.562Z,4.15
2023-05-15T04:11:48.217Z,3.95
2023-05-15T04:12:53.013Z,3.95
2023-05-15T04:13:57.613Z,4.40
2023-05-15T04:15:15.785Z,4.43
2023-05-15T04:16:22.586Z,4.40
2023-05-15T04:17:26.094Z,4.35
2023-05-15T04:18:31.699Z,4.00
2023-05-15T04:19:35.237Z,4.43
2023-05-15T04:20:40.902Z,3.50
2023-05-15T04:21:43.716Z,4.68
2023-05-15T04:22:48.964Z,3.75
2023-05-15T04:23:52.622Z,3.75
2023-05-15T04:24:57.401Z,4.25
2023-05-15T04:26:01.891Z,3.85
2023-05-15T04:27:07.652Z,3.45
2023-05-15T04:28:13.172Z,3.70
2023-05-15T04:29:16.949Z,3.50
2023-05-15T04:30:21.701Z,3.88
2023-05-15T04:31:28.176Z,4.20
2023-05-15T04:32:34.486Z,3.38
2023-05-15T04:33:39.730Z,4.30
2023-05-15T04:34:46.420Z,3.95
2023-05-15T04:35:52.630Z,4.43
2023-05-15T04:36:57.195Z,3.83
2023-05-15T04:38:01.035Z,3.65
2023-05-15T04:39:07.748Z,4.20
2023-05-15T04:40:13.001Z,4.10
2023-05-15T04:41:18.793Z,4.20
2023-05-15T04:42:24.060Z,4.05
2023-05-15T04:43:28.737Z,4.53
2023-05-15T04:44:32.862Z,3.53
2023-05-15T04:45:37.928Z,3.88
2023-05-15T04:46:44.991Z,3.85
2023-05-15T04:47:50.396Z,3.30
2023-05-15T04:48:53.912Z,3.55
2023-05-15T04:50:01.166Z,4.22
2023-05-15T04:51:04.927Z,3.72
2023-05-15T04:52:10.603Z,3.35
2023-05-15T04:53:17.370Z,3.80
2023-05-15T04:54:21.938Z,3.17
2023-05-15T04:55:27.282Z,3.35
2023-05-15T04:56:31.141Z,3.90
2023-05-15T04:57:36.663Z,3.13
2023-05-15T04:58:41.478Z,3.33
2023-05-15T04:59:47.309Z,3.38
2023-05-15T05:00:50.652Z,3.20
2023-05-15T05:01:56.345Z,4.07
2023-05-15T05:03:01.562Z,3.63
2023-05-15T05:04:07.242Z,3.53
2023-05-15T05:05:11.400Z,3.00
2023-05-15T05:06:16.078Z,2.75
2023-05-15T05:07:20.021Z,3.22
2023-05-15T05:08:24.863Z,3.40
2023-05-15T05:09:29.233Z,3.58
2023-05-15T05:10:34.821Z,3.42
2023-05-15T05:11:39.760Z,2.75
2023-05-15T05:12:44.658Z,2.67
2023-05-15T05:13:49.159Z,2.40
2023-05-15T05:14:54.059Z,2.45
2023-05-15T05:15:58.029Z,2.53
2023-05-15T05:17:05.094Z,2.95
2023-05-15T05:18:09.447Z,2.70
2023-05-15T05:19:15.116Z,2.30
2023-05-15T05:20:20.087Z,2.90
2023-05-15T05:21:24.771Z,2.70
2023-05-15T05:22:29.844Z,2.38
2023-05-15T05:23:34.177Z,2.37
2023-05-15T05:24:38.985Z,2.50
2023-05-15T05:25:42.642Z,2.30
2023-05-15T05:26:47.053Z,2.67
2023-05-15T05:27:50.671Z,2.33
2023-05-15T05:28:56.713Z,2.73
2023-05-15T05:30:01.308Z,2.30
2023-05-15T05:31:05.939Z,2.20
2023-05-15T05:32:11.272Z,2.13
2023-05-15T05:33:16.112Z,2.30
2023-05-15T05:34:22.019Z,2.00
2023-05-15T05:35:28.795Z,2.23
2023-05-15T05:36:32.684Z,2.30
2023-05-15T05:37:38.681Z,1.90
2023-05-15T05:38:44.115Z,2.43
2023-05-15T05:39:48.991Z,2.23
2023-05-15T05:40:53.090Z,2.63
2023-05-15T05:41:59.195Z,2.50
2023-05-15T05:43:02.959Z,2.00
2023-05-15T05:44:07.446Z,2.10
2023-05-15T05:45:12.955Z,1.80
2023-05-15T05:46:18.206Z,2.27
2023-05-15T05:47:22.976Z,2.17
2023-05-15T05:48:28.897Z,1.90
2023-05-15T05:49:33.201Z,2.13
2023-05-15T05:50:38.780Z,2.47
2023-05-15T05:51:43.162Z,2.23
2023-05-15T05:52:48.010Z,2.37
2023-05-15T05:53:52.105Z,2.20
2023-05-15T05:54:56.601Z,1.90
2023-05-15T05:55:59.648Z,1.90
2023-05-15T05:57:04.738Z,2.00
2023-05-15T05:58:14.802Z,2.37
2023-05-15T05:59:29.720Z,1.83
2023-05-15T06:00:33.472Z,2.07
2023-05-15T06:01:37.796Z,2.67
2023-05-15T06:02:44.298Z,2.03
2023-05-15T06:03:49.205Z,1.93
2023-05-15T06:04:55.372Z,2.30
2023-05-15T06:05:58.975Z,2.00
2023-05-15T06:07:03.623Z,1.83
2023-05-15T06:08:09.518Z,1.80
2023-05-15T06:09:13.662Z,1.70
2023-05-15T06:10:19.217Z,1.90
2023-05-15T06:11:25.532Z,1.97
2023-05-15T06:12:29.296Z,1.67
2023-05-15T06:13:34.938Z,1.70
2023-05-15T06:14:38.802Z,2.17
2023-05-15T06:15:43.901Z,1.53
2023-05-15T06:16:49.097Z,1.90
2023-05-15T06:17:54.406Z,1.70
2023-05-15T06:18:59.078Z,1.90
2023-05-15T06:20:03.846Z,1.80
2023-05-15T06:21:08.553Z,1.60
2023-05-15T06:22:11.740Z,1.50
2023-05-15T06:23:16.434Z,1.67
2023-05-15T06:24:20.303Z,2.00
2023-05-15T06:25:23.445Z,1.27
2023-05-15T06:26:27.668Z,1.53
2023-05-15T06:27:30.892Z,1.60
2023-05-15T06:28:34.802Z,1.50
2023-05-15T06:29:37.863Z,1.57
2023-05-15T06:30:42.787Z,1.60
2023-05-15T06:31:46.843Z,1.60
2023-05-15T06:32:51.029Z,1.63
2023-05-15T06:33:55.860Z,1.40
2023-05-15T06:35:00.720Z,1.43
2023-05-15T06:36:04.997Z,1.30
2023-05-15T06:37:09.193Z,1.30
2023-05-15T06:38:13.357Z,1.30
2023-05-15T06:39:17.422Z,1.10
2023-05-15T06:40:23.702Z,1.20
2023-05-15T06:41:27.003Z,1.20
2023-05-15T06:42:31.565Z,1.30
2023-05-15T06:43:36.504Z,1.37
2023-05-15T06:44:42.390Z,1.37
2023-05-15T06:45:47.247Z,1.33
2023-05-15T06:46:50.989Z,1.20
2023-05-15T06:47:55.793Z,1.13
2023-05-15T06:49:01.886Z,1.10
2023-05-15T06:50:06.025Z,1.23
2023-05-15T06:51:11.124Z,1.30
2023-05-15T06:52:15.443Z,1.43
2023-05-15T06:53:21.241Z,1.80
2023-05-15T06:54:25.796Z,1.40
2023-05-15T06:55:29.347Z,1.20
2023-05-15T06:56:34.962Z,1.20
2023-05-15T06:57:38.625Z,1.20
2023-05-15T06:58:43.362Z,1.50
2023-05-15T06:59:49.066Z,1.10
2023-05-15T07:00:54.244Z,1.30
2023-05-15T07:02:00.575Z,1.40
2023-05-15T07:03:03.839Z,1.10
2023-05-15T07:04:09.631Z,1.30
2023-05-15T07:05:13.348Z,1.20
2023-05-15T07:06:19.328Z,1.40
2023-05-15T07:07:23.081Z,1.20
2023-05-15T07:08:29.008Z,1.00
2023-05-15T07:09:32.800Z,1.10
2023-05-15T07:10:37.333Z,1.00
2023-05-15T07:11:44.242Z,1.23
2023-05-15T07:12:49.542Z,1.00
2023-05-15T07:13:53.473Z,1.07
2023-05-15T07:14:58.143Z,1.10
2023-05-15T07:16:01.715Z,0.93
2023-05-15T07:17:07.264Z,1.07
2023-05-15T07:18:11.331Z,1.20
2023-05-15T07:19:21.893Z,1.30
2023-05-15T07:20:32.454Z,1.23
2023-05-15T07:21:39.806Z,1.43
2023-05-15T07:22:55.690Z,1.23
2023-05-15T07:24:02.400Z,1.53
2023-05-15T07:25:07.989Z,1.13
2023-05-15T07:26:16.885Z,1.07
2023-05-15T07:27:24.544Z,1.40
2023-05-15T07:28:28.153Z,1.17
2023-05-15T07:29:32.591Z,0.93
2023-05-15T07:30:35.844Z,1.20
2023-05-15T07:31:40.742Z,0.90
2023-05-15T07:32:45.219Z,1.27
2023-05-15T07:33:48.559Z,1.20
2023-05-15T07:34:54.379Z,1.10
2023-05-15T07:35:58.084Z,1.10
2023-05-15T07:37:02.680Z,1.00
2023-05-15T07:38:07.278Z,1.00
2023-05-15T07:39:13.581Z,1.07
2023-05-15T07:40:17.295Z,1.23
2023-05-15T07:41:20.379Z,1.00
2023-05-15T07:42:24.543Z,0.87
2023-05-15T07:43:28.221Z,1.00
2023-05-15T07:44:31.211Z,1.10
2023-05-15T07:45:34.955Z,1.20
2023-05-15T07:46:39.559Z,1.73
2023-05-15T07:47:46.640Z,0.90
2023-05-15T07:48:49.460Z,1.10
2023-05-15T07:49:55.096Z,0.97
2023-05-15T07:50:57.775Z,1.00
2023-05-15T07:52:03.479Z,0.90
2023-05-15T07:53:07.010Z,1.30
2023-05-15T07:54:11.175Z,1.23
2023-05-15T07:55:16.059Z,1.00
2023-05-15T07:56:20.644Z,1.40
2023-05-15T07:57:25.637Z,0.90
2023-05-15T07:58:29.052Z,1.63
2023-05-15T07:59:33.162Z,1.00
2023-05-15T08:00:36.800Z,1.00
2023-05-15T08:01:40.681Z,0.90
2023-05-15T08:02:46.590Z,0.90
2023-05-15T08:03:49.896Z,1.00
2023-05-15T08:04:56.228Z,1.10
2023-05-15T08:06:00.721Z,0.90
2023-05-15T08:07:04.965Z,0.90
2023-05-15T08:08:08.710Z,0.90
2023-05-15T08:09:13.199Z,1.00
2023-05-15T08:10:17.573Z,1.00
2023-05-15T08:11:23.138Z,1.13
2023-05-15T08:12:28.516Z,1.07
2023-05-15T08:13:31.846Z,1.03
2023-05-15T08:14:35.916Z,1.00
2023-05-15T08:15:39.858Z,0.87
2023-05-15T08:16:42.747Z,0.90
2023-05-15T08:17:46.729Z,1.10
2023-05-15T08:18:53.908Z,1.10
2023-05-15T08:19:59.041Z,0.90
2023-05-15T08:21:04.669Z,1.00
2023-05-15T08:22:07.968Z,1.00
2023-05-15T08:23:14.984Z,0.77
2023-05-15T08:24:19.296Z,1.00
2023-05-15T08:25:23.241Z,0.90
2023-05-15T08:26:27.746Z,1.20
2023-05-15T08:27:32.893Z,0.90
2023-05-15T08:28:36.886Z,0.90
2023-05-15T08:29:40.446Z,1.10
2023-05-15T08:30:44.032Z,0.90
2023-05-15T08:31:46.914Z,1.00
2023-05-15T08:32:51.157Z,0.80
2023-05-15T08:33:54.144Z,0.80
2023-05-15T08:35:00.526Z,0.87
2023-05-15T08:36:03.339Z,0.93
2023-05-15T08:37:07.803Z,1.10
2023-05-15T08:38:12.088Z,0.90
2023-05-15T08:39:15.463Z,1.00
2023-05-15T08:40:25.598Z,1.10
2023-05-15T08:41:49.477Z,1.07
2023-05-15T08:42:57.134Z,1.00
2023-05-15T08:44:04.243Z,1.10
2023-05-15T08:45:09.289Z,0.90
2023-05-15T08:46:14.368Z,1.00
2023-05-15T08:47:20.426Z,1.30
2023-05-15T08:48:26.685Z,1.00
2023-05-15T08:49:38.869Z,0.90
2023-05-15T08:50:46.228Z,1.10
2023-05-15T08:51:49.394Z,1.00
2023-05-15T08:52:58.362Z,0.90
2023-05-15T08:54:02.539Z,1.00
2023-05-15T08:55:06.924Z,1.30
2023-05-15T08:56:10.800Z,1.00
2023-05-15T08:57:15.580Z,1.00
2023-05-15T08:58:21.571Z,1.03
2023-05-15T08:59:25.478Z,0.90
2023-05-15T09:00:30.152Z,1.00
2023-05-15T09:01:35.452Z,0.80
2023-05-15T09:02:42.951Z,1.10
2023-05-15T09:03:47.263Z,1.10
2023-05-15T09:04:50.084Z,1.00
2023-05-15T09:05:57.484Z,0.93
2023-05-15T09:07:02.626Z,0.90
2023-05-15T09:08:08.327Z,1.00
2023-05-15T09:09:14.711Z,1.00
2023-05-15T09:10:18.960Z,1.20
2023-05-15T09:11:24.421Z,0.80
2023-05-15T09:12:28.880Z,0.90
2023-05-15T09:13:31.996Z,1.07
2023-05-15T09:14:36.390Z,1.00
2023-05-15T09:15:39.981Z,0.93
2023-05-15T09:16:44.963Z,1.20
2023-05-15T09:17:49.116Z,1.17
2023-05-15T09:18:54.014Z,1.10
2023-05-15T09:19:58.429Z,0.90
2023-05-15T09:21:28.308Z,1.00
2023-05-15T09:22:36.097Z,0.80
2023-05-15T09:23:40.389Z,0.97
2023-05-15T09:24:43.494Z,0.80
2023-05-15T09:25:53.099Z,1.10
2023-05-15T09:27:06.339Z,0.90
2023-05-15T09:28:10.999Z,0.80
2023-05-15T09:29:19.191Z,1.20
2023-05-15T09:30:23.268Z,1.23
2023-05-15T09:31:29.383Z,1.10
2023-05-15T09:32:32.907Z,1.20
2023-05-15T09:33:38.619Z,1.30
2023-05-15T09:34:43.958Z,1.00
2023-05-15T09:35:47.165Z,1.17
2023-05-15T09:36:53.159Z,1.03
2023-05-15T09:38:01.210Z,1.00
2023-05-15T09:39:05.487Z,1.10
2023-05-15T09:40:11.156Z,1.10
2023-05-15T09:41:16.252Z,0.93
2023-05-15T09:42:19.743Z,1.10
2023-05-15T09:43:24.803Z,1.20
2023-05-15T09:44:28.876Z,1.43
2023-05-15T09:45:32.097Z,1.07
2023-05-15T09:46:36.817Z,1.10
2023-05-15T09:47:40.445Z,1.23
2023-05-15T09:48:44.859Z,0.90
2023-05-15T09:49:49.184Z,1.47
2023-05-15T09:50:53.674Z,1.13
2023-05-15T09:52:02.389Z,1.03
2023-05-15T09:53:07.234Z,0.93
2023-05-15T09:54:17.344Z,1.30
2023-05-15T09:55:21.880Z,1.33
2023-05-15T09:56:27.441Z,1.10
2023-05-15T09:57:29.950Z,1.27
2023-05-15T09:58:36.839Z,1.00
2023-05-15T09:59:46.648Z,1.30
2023-05-15T10:00:50.530Z,1.10
2023-05-15T10:01:54.997Z,1.10
2023-05-15T10:02:59.759Z,0.90
2023-05-15T10:04:07.783Z,1.20
2023-05-15T10:05:14.835Z,1.20
2023-05-15T10:06:21.406Z,1.00
2023-05-15T10:07:34.295Z,1.20
2023-05-15T10:08:42.219Z,1.10
2023-05-15T10:09:46.357Z,1.30
2023-05-15T10:10:51.238Z,1.10
2023-05-15T10:11:55.289Z,1.17
2023-05-15T10:13:05.121Z,1.00
2023-05-15T10:14:09.919Z,1.00
2023-05-15T10:15:14.092Z,1.13
2023-05-15T10:16:22.812Z,1.10
2023-05-15T10:17:28.255Z,0.93
2023-05-15T10:18:35.127Z,0.90
2023-05-15T10:19:47.172Z,1.10
2023-05-15T10:21:04.485Z,0.90
2023-05-15T10:22:10.225Z,0.70
2023-05-15T10:23:18.789Z,0.80
2023-05-15T10:24:24.510Z,0.83
2023-05-15T10:25:34.971Z,0.90
2023-05-15T10:26:40.836Z,0.93
2023-05-15T10:27:44.668Z,0.80
2023-05-15T10:28:50.940Z,0.80
2023-05-15T10:29:57.345Z,0.90
2023-05-15T10:31:02.635Z,1.03
2023-05-15T10:32:06.218Z,0.80
2023-05-15T10:33:11.117Z,0.90
2023-05-15T10:34:14.535Z,1.10
2023-05-15T10:35:19.333Z,1.47
2023-05-15T10:36:23.302Z,1.00
2023-05-15T10:37:29.794Z,1.07
2023-05-15T10:38:38.161Z,0.90
2023-05-15T10:39:44.443Z,1.20
2023-05-15T10:40:49.440Z,1.00
2023-05-15T10:41:55.155Z,1.10
2023-05-15T10:43:02.416Z,1.10
2023-05-15T10:44:06.532Z,1.17
2023-05-15T10:45:12.218Z,1.00
2023-05-15T10:46:18.306Z,0.90
2023-05-15T10:47:22.481Z,1.10
2023-05-15T10:48:28.653Z,1.23
2023-05-15T10:49:34.681Z,0.90
2023-05-15T10:50:40.174Z,1.23
2023-05-15T10:51:45.165Z,1.10
2023-05-15T10:52:52.842Z,0.97
2023-05-15T10:53:59.618Z,1.23
2023-05-15T10:55:07.075Z,1.20
2023-05-15T10:56:16.876Z,0.90
2023-05-15T10:57:23.098Z,1.20
2023-05-15T10:58:26.152Z,0.90
2023-05-15T10:59:33.477Z,1.10
2023-05-15T11:00:44.467Z,1.00
2023-05-15T11:01:49.416Z,1.00
2023-05-15T11:02:56.802Z,1.37
2023-05-15T11:04:13.229Z,1.17
2023-05-15T11:05:17.536Z,1.10
2023-05-15T11:06:32.482Z,1.00
2023-05-15T11:07:37.698Z,1.00
2023-05-15T11:08:46.301Z,0.90
2023-05-15T11:09:51.925Z,0.90
2023-05-15T11:10:55.469Z,0.97
2023-05-15T11:12:01.623Z,0.80
2023-05-15T11:13:05.856Z,1.00
2023-05-15T11:14:16.010Z,1.00
2023-05-15T11:15:21.363Z,0.90
2023-05-15T11:17:17.919Z,0.90
2023-05-15T11:18:21.377Z,1.00
2023-05-15T11:19:27.314Z,1.10
2023-05-15T11:20:41.584Z,1.00
2023-05-15T11:21:48.076Z,0.80
2023-05-15T11:23:00.193Z,0.90
2023-05-15T11:24:07.339Z,1.00
2023-05-15T11:25:15.022Z,0.90
2023-05-15T11:26:33.790Z,0.90
2023-05-15T11:27:42.070Z,0.87
2023-05-15T11:28:46.025Z,0.90
2023-05-15T11:30:11.183Z,1.07
2023-05-15T11:31:16.634Z,1.20
2023-05-15T11:32:33.216Z,1.03
2023-05-15T11:33:41.035Z,1.00
2023-05-15T11:34:44.313Z,1.10
2023-05-15T11:35:49.330Z,1.03
2023-05-15T11:36:52.988Z,1.00
2023-05-15T11:37:58.597Z,0.80
2023-05-15T11:39:03.532Z,1.00
2023-05-15T11:40:07.777Z,1.00
2023-05-15T11:41:27.775Z,0.90
2023-05-15T11:42:32.345Z,0.93
2023-05-15T11:43:37.958Z,0.97
2023-05-15T11:44:41.027Z,1.53
2023-05-15T11:45:47.682Z,0.87
2023-05-15T11:46:51.566Z,1.10
2023-05-15T11:47:55.649Z,0.83
2023-05-15T11:49:00.361Z,0.90
2023-05-15T11:50:06.721Z,0.80
2023-05-15T11:51:18.454Z,0.90
2023-05-15T11:52:21.657Z,0.93
2023-05-15T11:53:27.111Z,0.90
2023-05-15T11:54:31.834Z,0.63
2023-05-15T11:55:36.021Z,0.80
2023-05-15T11:56:46.428Z,0.90
2023-05-15T11:57:49.660Z,0.87
2023-05-15T11:58:55.955Z,1.03
2023-05-15T12:00:00.182Z,1.10
2023-05-15T12:01:12.854Z,0.70
2023-05-15T12:02:17.801Z,0.90
2023-05-15T12:03:27.403Z,0.93
2023-05-15T12:04:34.836Z,0.93
2023-05-15T12:05:53.648Z,1.10
2023-05-15T12:07:03.773Z,0.87
2023-05-15T12:08:10.601Z,0.87
2023-05-15T12:09:19.627Z,0.80
2023-05-15T12:10:23.339Z,0.90
2023-05-15T12:11:27.410Z,0.90
2023-05-15T12:12:33.557Z,0.80
2023-05-15T12:13:37.459Z,0.80
2023-05-15T12:14:41.533Z,0.80
2023-05-15T12:15:48.400Z,0.90
2023-05-15T12:16:53.892Z,0.70
2023-05-15T12:17:57.486Z,1.10
2023-05-15T12:19:01.738Z,1.10
2023-05-15T12:20:06.176Z,1.10
2023-05-15T12:21:12.267Z,0.83
2023-05-15T12:22:16.125Z,0.83
2023-05-15T12:23:22.922Z,1.00
2023-05-15T12:24:28.156Z,0.70
2023-05-15T12:25:33.447Z,0.90
2023-05-15T12:26:38.679Z,1.23
2023-05-15T12:27:44.593Z,0.70
2023-05-15T12:28:49.582Z,0.97
2023-05-15T12:29:52.573Z,0.80
2023-05-15T12:30:56.610Z,0.90
2023-05-15T12:32:00.771Z,1.17
2023-05-15T12:33:07.144Z,0.90
2023-05-15T12:34:11.122Z,0.80
2023-05-15T12:35:14.977Z,0.70
2023-05-15T12:36:22.651Z,0.90
2023-05-15T12:37:26.524Z,0.80
2023-05-15T12:38:30.907Z,0.80
2023-05-15T12:39:35.678Z,1.30
2023-05-15T12:40:39.623Z,1.00
2023-05-15T12:41:44.007Z,0.90
2023-05-15T12:42:53.840Z,1.63
2023-05-15T12:43:58.075Z,0.97
2023-05-15T12:45:02.135Z,1.03
2023-05-15T12:46:06.416Z,0.80
2023-05-15T12:47:09.983Z,0.80
2023-05-15T12:48:16.644Z,0.83
2023-05-15T12:49:24.469Z,1.03
2023-05-15T12:50:30.873Z,0.80
2023-05-15T12:51:34.995Z,1.00
2023-05-15T12:52:38.044Z,0.90
2023-05-15T12:53:44.349Z,1.00
2023-05-15T12:54:47.418Z,0.90
2023-05-15T12:55:53.431Z,1.20
2023-05-15T12:56:57.734Z,0.90
2023-05-15T12:58:06.859Z,0.80
2023-05-15T12:59:11.980Z,0.90
2023-05-15T13:00:17.010Z,0.80
2023-05-15T13:01:21.118Z,0.90
2023-05-15T13:02:25.543Z,0.90
2023-05-15T13:03:32.114Z,0.80
2023-05-15T13:04:35.169Z,0.73
2023-05-15T13:05:40.156Z,0.90
2023-05-15T13:06:46.772Z,0.90
2023-05-15T13:07:52.213Z,1.73
2023-05-15T13:08:56.967Z,0.90
2023-05-15T13:10:11.349Z,0.93
2023-05-15T13:11:15.576Z,1.00
2023-05-15T13:12:21.479Z,1.20
2023-05-15T13:13:40.298Z,1.10
2023-05-15T13:14:45.095Z,1.20
2023-05-15T13:15:50.912Z,0.90
2023-05-15T13:16:54.241Z,0.97
2023-05-15T13:18:02.502Z,1.00
2023-05-15T13:19:07.560Z,1.00
2023-05-15T13:20:11.527Z,1.00
2023-05-15T13:21:17.056Z,0.80
2023-05-15T13:22:21.764Z,0.93
2023-05-15T13:23:25.921Z,0.90
2023-05-15T13:24:30.207Z,1.00
2023-05-15T13:25:34.145Z,0.73
2023-05-15T13:26:37.929Z,1.00
2023-05-15T13:27:43.174Z,1.20
2023-05-15T13:28:53.457Z,1.07
2023-05-15T13:30:05.535Z,1.00
2023-05-15T13:31:18.233Z,0.90
2023-05-15T13:32:31.425Z,0.90
2023-05-15T13:33:36.375Z,0.90
2023-05-15T13:34:39.117Z,1.00
2023-05-15T13:35:44.629Z,0.90
2023-05-15T13:36:48.468Z,0.90
2023-05-15T13:37:52.076Z,1.20
2023-05-15T13:38:55.947Z,0.93
2023-05-15T13:39:59.685Z,1.13
2023-05-15T13:41:03.678Z,1.10
2023-05-15T13:42:08.381Z,1.00
2023-05-15T13:43:12.239Z,2.07
2023-05-15T13:44:18.367Z,0.93
2023-05-15T13:45:22.482Z,1.00
2023-05-15T13:46:26.662Z,0.93
2023-05-15T13:47:29.650Z,0.93
2023-05-15T13:48:33.892Z,0.90
2023-05-15T13:49:37.158Z,1.07
2023-05-15T13:50:40.870Z,1.00
2023-05-15T13:51:43.423Z,1.10
2023-05-15T13:52:48.113Z,1.03
2023-05-15T13:53:52.744Z,1.00
2023-05-15T13:54:57.106Z,0.90
2023-05-15T13:56:01.056Z,1.00
2023-05-15T13:57:05.345Z,1.20
2023-05-15T13:58:09.475Z,0.80
2023-05-15T13:59:12.348Z,1.00
2023-05-15T14:00:20.612Z,1.00
2023-05-15T14:01:27.654Z,0.90
2023-05-15T14:02:31.836Z,1.10
2023-05-15T14:03:35.995Z,0.90
2023-05-15T14:04:40.867Z,1.30
2023-05-15T14:05:45.058Z,1.10
2023-05-15T14:06:49.246Z,1.07
2023-05-15T14:07:53.608Z,0.83
2023-05-15T14:08:56.996Z,1.07
2023-05-15T14:10:01.976Z,1.07
2023-05-15T14:11:43.107Z,1.00
2023-05-15T14:12:47.643Z,1.03
2023-05-15T14:13:51.569Z,1.07
2023-05-15T14:14:56.575Z,1.27
2023-05-15T14:16:00.645Z,1.00
2023-05-15T14:17:05.311Z,1.00
2023-05-15T14:18:09.082Z,0.90
2023-05-15T14:19:11.994Z,0.90
2023-05-15T14:20:16.260Z,0.90
2023-05-15T14:21:19.943Z,0.90
2023-05-15T14:22:25.234Z,0.90
2023-05-15T14:23:28.959Z,0.80
2023-05-15T14:24:31.817Z,1.23
2023-05-15T14:25:36.434Z,1.10
2023-05-15T14:26:41.409Z,1.40
2023-05-15T14:27:45.059Z,1.10
2023-05-15T14:28:49.502Z,0.80
2023-05-15T14:29:53.068Z,1.00
2023-05-15T14:30:57.240Z,0.90
2023-05-15T14:32:01.169Z,1.00
2023-05-15T14:33:08.160Z,1.07
2023-05-15T14:34:12.394Z,1.00
2023-05-15T14:35:15.958Z,1.20
2023-05-15T14:36:20.285Z,1.27
2023-05-15T14:37:23.242Z,1.20
2023-05-15T14:38:27.198Z,1.00